createdAt,value
2024-01-11T00:00:09.404Z,163.12
2024-01-11T00:01:12.968Z,169.90
2024-01-11T00:02:16.327Z,164.42
2024-01-11T00:03:18.928Z,156.12
2024-01-11T00:04:22.126Z,150.50
2024-01-11T00:05:24.474Z,140.08
2024-01-11T00:06:26.853Z,137.15
2024-01-11T00:07:30.079Z,137.73
2024-01-11T00:08:32.266Z,136.77
2024-01-11T00:09:35.501Z,142.15
2024-01-11T00:10:37.734Z,143.42
2024-01-11T00:11:41.062Z,144.75
2024-01-11T00:12:43.269Z,147.63
2024-01-11T00:13:46.504Z,153.03
2024-01-11T00:14:48.725Z,158.97
2024-01-11T00:15:51.971Z,160.18
2024-01-11T00:16:55.628Z,151.73
2024-01-11T00:17:58.973Z,153.32
2024-01-11T00:19:01.921Z,158.62
2024-01-11T00:20:05.923Z,150.80
2024-01-11T00:21:08.112Z,154.82
2024-01-11T00:22:11.270Z,153.52
2024-01-11T00:23:13.568Z,152.15
2024-01-11T00:24:16.881Z,148.10
2024-01-11T00:25:19.287Z,146.80
2024-01-11T00:26:22.599Z,148.48
2024-01-11T00:27:24.860Z,158.42
2024-01-11T00:28:28.098Z,155.82
2024-01-11T00:29:30.330Z,143.17
2024-01-11T00:30:33.604Z,148.40
2024-01-11T00:31:36.440Z,143.45
2024-01-11T00:32:41.239Z,141.15
2024-01-11T00:33:43.768Z,144.87
2024-01-11T00:34:47.063Z,141.03
2024-01-11T00:35:49.399Z,140.75
2024-01-11T00:36:52.668Z,150.17
2024-01-11T00:37:54.890Z,144.40
2024-01-11T00:38:58.137Z,155.50
2024-01-11T00:40:00.421Z,170.08
2024-01-11T00:41:03.789Z,184.32
2024-01-11T00:42:06.390Z,173.78
2024-01-11T00:43:09.564Z,163.93
2024-01-11T00:44:11.981Z,159.68
2024-01-11T00:45:14.355Z,157.67
2024-01-11T00:46:17.502Z,152.97
2024-01-11T00:47:19.771Z,158.45
2024-01-11T00:48:24.473Z,160.98
2024-01-11T00:49:26.845Z,166.68
2024-01-11T00:50:30.040Z,177.72
2024-01-11T00:51:32.339Z,180.17
2024-01-11T00:52:35.550Z,187.05
2024-01-11T00:53:37.922Z,188.93
2024-01-11T00:54:41.223Z,170.25
2024-01-11T00:55:44.374Z,154.52
2024-01-11T00:56:47.638Z,152.62
2024-01-11T00:57:49.829Z,151.87
2024-01-11T00:58:53.455Z,139.58
2024-01-11T00:59:56.509Z,131.68
2024-01-11T01:00:59.834Z,132.48
2024-01-11T01:02:02.243Z,130.38
2024-01-11T01:03:06.144Z,120.42
2024-01-11T01:04:10.260Z,121.13
2024-01-11T01:05:13.819Z,117.90
2024-01-11T01:06:16.128Z,114.98
2024-01-11T01:07:19.465Z,106.55
2024-01-11T01:08:21.681Z,105.33
2024-01-11T01:09:24.868Z,103.22
2024-01-11T01:10:27.061Z,98.58
2024-01-11T01:11:30.286Z,102.15
2024-01-11T01:12:32.544Z,99.15
2024-01-11T01:13:35.790Z,93.47
2024-01-11T01:14:37.996Z,94.92
2024-01-11T01:15:41.265Z,95.25
2024-01-11T01:16:43.538Z,95.37
2024-01-11T01:17:46.804Z,96.00
2024-01-11T01:18:49.162Z,93.18
2024-01-11T01:19:53.735Z,92.48
2024-01-11T01:20:56.278Z,91.78
2024-01-11T01:21:59.471Z,92.07
2024-01-11T01:23:01.857Z,91.35
2024-01-11T01:24:05.440Z,92.32
2024-01-11T01:25:08.597Z,91.05
2024-01-11T01:26:11.892Z,91.33
2024-01-11T01:27:14.126Z,93.48
2024-01-11T01:28:17.349Z,91.73
2024-01-11T01:29:19.627Z,92.28
2024-01-11T01:30:23.145Z,91.80
2024-01-11T01:31:25.374Z,93.12
2024-01-11T01:32:27.689Z,94.32
2024-01-11T01:33:31.122Z,94.03
2024-01-11T01:34:33.541Z,94.57
2024-01-11T01:35:38.231Z,98.08
2024-01-11T01:36:40.607Z,96.65
2024-01-11T01:37:43.849Z,100.90
2024-01-11T01:38:46.586Z,101.72
2024-01-11T01:39:48.902Z,103.82
2024-01-11T01:40:52.149Z,104.10
2024-01-11T01:41:54.460Z,104.50
2024-01-11T01:43:01.030Z,103.93
2024-01-11T01:44:03.441Z,106.07
2024-01-11T01:45:08.152Z,99.98
2024-01-11T01:46:10.421Z,100.40
2024-01-11T01:47:13.849Z,97.28
2024-01-11T01:48:16.337Z,96.52
2024-01-11T01:49:23.589Z,93.45
2024-01-11T01:50:26.922Z,97.98
2024-01-11T01:51:32.847Z,97.07
2024-01-11T01:52:36.170Z,91.72
2024-01-11T01:53:39.568Z,97.37
2024-01-11T01:54:42.065Z,97.90
2024-01-11T01:55:45.369Z,99.05
2024-01-11T01:56:47.784Z,97.70
2024-01-11T01:57:52.600Z,94.47
2024-01-11T01:58:55.501Z,95.62
2024-01-11T01:59:58.905Z,96.47
2024-01-11T02:01:01.137Z,97.38
2024-01-11T02:02:03.687Z,98.80
2024-01-11T02:03:07.348Z,96.45
2024-01-11T02:04:09.902Z,95.50
2024-01-11T02:05:13.094Z,98.23
2024-01-11T02:06:17.083Z,97.60
2024-01-11T02:07:20.855Z,95.47
2024-01-11T02:08:25.257Z,95.25
2024-01-11T02:09:27.726Z,100.10
2024-01-11T02:10:32.203Z,99.03
2024-01-11T02:11:36.310Z,96.55
2024-01-11T02:12:38.795Z,96.93
2024-01-11T02:13:42.113Z,96.67
2024-01-11T02:14:44.577Z,96.40
2024-01-11T02:15:47.824Z,95.77
2024-01-11T02:16:49.965Z,94.20
2024-01-11T02:17:53.406Z,92.87
2024-01-11T02:18:55.906Z,92.92
2024-01-11T02:19:59.208Z,93.80
2024-01-11T02:21:03.890Z,93.00
2024-01-11T02:22:12.726Z,92.95
2024-01-11T02:23:19.286Z,91.68
2024-01-11T02:24:24.039Z,93.27
2024-01-11T02:25:26.301Z,91.12
2024-01-11T02:26:29.482Z,92.75
2024-01-11T02:27:31.754Z,93.18
2024-01-11T02:28:35.039Z,93.58
2024-01-11T02:29:37.253Z,92.08
2024-01-11T02:30:39.602Z,92.45
2024-01-11T02:31:42.824Z,93.37
2024-01-11T02:32:47.387Z,92.78
2024-01-11T02:33:51.939Z,90.50
2024-01-11T02:34:54.142Z,90.27
2024-01-11T02:35:57.779Z,93.33
2024-01-11T02:37:00.246Z,95.40
2024-01-11T02:38:04.484Z,91.85
2024-01-11T02:39:07.100Z,90.48
2024-01-11T02:40:12.777Z,91.23
2024-01-11T02:41:15.923Z,93.35
2024-01-11T02:42:19.176Z,88.18
2024-01-11T02:43:21.382Z,91.73
2024-01-11T02:44:24.511Z,90.18
2024-01-11T02:45:26.715Z,89.82
2024-01-11T02:46:29.880Z,89.60
2024-01-11T02:47:32.403Z,88.60
2024-01-11T02:48:35.784Z,88.10
2024-01-11T02:49:38.110Z,89.67
2024-01-11T02:50:41.404Z,87.33
2024-01-11T02:51:43.665Z,89.57
2024-01-11T02:52:46.944Z,90.25
2024-01-11T02:53:49.649Z,92.35
2024-01-11T02:54:52.883Z,89.47
2024-01-11T02:55:56.539Z,89.25
2024-01-11T02:57:00.162Z,92.60
2024-01-11T02:58:02.376Z,92.22
2024-01-11T02:59:04.704Z,93.60
2024-01-11T03:00:09.075Z,95.18
2024-01-11T03:01:11.329Z,96.97
2024-01-11T03:02:13.627Z,95.45
2024-01-11T03:03:16.985Z,91.57
2024-01-11T03:04:19.266Z,92.08
2024-01-11T03:05:22.505Z,93.50
2024-01-11T03:06:24.788Z,93.78
2024-01-11T03:07:27.938Z,90.22
2024-01-11T03:08:30.248Z,88.08
2024-01-11T03:09:33.494Z,88.07
2024-01-11T03:10:38.769Z,89.58
2024-01-11T03:11:43.378Z,89.23
2024-01-11T03:12:45.745Z,91.23
2024-01-11T03:13:48.907Z,88.77
2024-01-11T03:14:51.151Z,90.53
2024-01-11T03:15:54.301Z,90.27
2024-01-11T03:16:56.684Z,90.05
2024-01-11T03:18:00.127Z,90.65
2024-01-11T03:19:02.592Z,92.17
2024-01-11T03:20:07.019Z,91.85
2024-01-11T03:21:09.398Z,91.02
2024-01-11T03:22:14.193Z,93.33
2024-01-11T03:23:16.454Z,91.68
2024-01-11T03:24:18.705Z,92.17
2024-01-11T03:25:21.878Z,92.12
2024-01-11T03:26:24.362Z,92.65
2024-01-11T03:27:28.929Z,89.13
2024-01-11T03:28:31.134Z,90.95
2024-01-11T03:29:34.296Z,92.40
2024-01-11T03:30:36.818Z,91.88
2024-01-11T03:31:42.669Z,90.98
2024-01-11T03:32:45.166Z,90.58
2024-01-11T03:33:48.682Z,90.52
2024-01-11T03:34:50.925Z,90.67
2024-01-11T03:35:54.112Z,91.43
2024-01-11T03:36:56.330Z,91.35
2024-01-11T03:37:59.517Z,89.80
2024-01-11T03:39:02.263Z,91.12
2024-01-11T03:40:06.242Z,90.03
2024-01-11T03:41:11.732Z,90.02
2024-01-11T03:42:15.377Z,90.13
2024-01-11T03:43:19.908Z,88.50
2024-01-11T03:44:23.223Z,90.53
2024-01-11T03:45:25.457Z,88.62
2024-01-11T03:46:28.848Z,91.35
2024-01-11T03:47:31.522Z,89.67
2024-01-11T03:48:36.956Z,93.13
2024-01-11T03:49:39.273Z,93.15
2024-01-11T03:50:42.551Z,91.68
2024-01-11T03:51:45.448Z,95.07
2024-01-11T03:52:48.543Z,95.50
2024-01-11T03:53:50.953Z,96.75
2024-01-11T03:54:54.276Z,96.75
2024-01-11T03:55:56.575Z,97.15
2024-01-11T03:56:59.835Z,98.67
2024-01-11T03:58:02.585Z,100.52
2024-01-11T03:59:07.055Z,97.87
2024-01-11T04:00:11.748Z,101.03
2024-01-11T04:01:14.163Z,98.23
2024-01-11T04:02:17.872Z,99.82
2024-01-11T04:03:20.143Z,103.42
2024-01-11T04:04:23.532Z,103.65
2024-01-11T04:05:25.949Z,101.48
2024-01-11T04:06:29.459Z,103.47
2024-01-11T04:07:31.710Z,97.93
2024-01-11T04:08:35.076Z,101.18
2024-01-11T04:09:38.743Z,98.90
2024-01-11T04:10:42.076Z,102.33
2024-01-11T04:11:44.267Z,100.90
2024-01-11T04:12:47.446Z,103.28
2024-01-11T04:13:50.164Z,102.52
2024-01-11T04:14:53.669Z,98.00
2024-01-11T04:15:56.822Z,108.12
2024-01-11T04:16:59.113Z,116.02
2024-01-11T04:18:02.593Z,112.83
2024-01-11T04:19:05.347Z,106.28
2024-01-11T04:20:10.142Z,110.52
2024-01-11T04:21:22.455Z,111.13
2024-01-11T04:22:25.769Z,115.98
2024-01-11T04:23:28.021Z,112.35
2024-01-11T04:24:30.276Z,111.02
2024-01-11T04:25:33.436Z,114.48
2024-01-11T04:26:35.987Z,112.73
2024-01-11T04:27:39.302Z,106.93
2024-01-11T04:28:41.533Z,114.22
2024-01-11T04:29:44.812Z,113.35
2024-01-11T04:30:48.428Z,110.82
2024-01-11T04:31:51.654Z,113.75
2024-01-11T04:32:53.881Z,118.30
2024-01-11T04:33:57.351Z,124.13
2024-01-11T04:34:59.869Z,121.22
2024-01-11T04:36:02.980Z,117.23
2024-01-11T04:37:06.206Z,119.45
2024-01-11T04:38:08.584Z,113.73
2024-01-11T04:39:12.515Z,112.93
2024-01-11T04:40:14.948Z,111.22
2024-01-11T04:41:18.185Z,111.33
2024-01-11T04:42:20.553Z,116.52
2024-01-11T04:43:23.638Z,112.82
2024-01-11T04:44:28.045Z,109.12
2024-01-11T04:45:31.396Z,108.57
2024-01-11T04:46:34.953Z,110.17
2024-01-11T04:47:39.114Z,109.73
2024-01-11T04:48:41.475Z,109.78
2024-01-11T04:49:44.650Z,112.88
2024-01-11T04:50:46.948Z,112.18
2024-01-11T04:51:50.167Z,110.77
2024-01-11T04:52:52.391Z,116.30
2024-01-11T04:53:55.688Z,118.60
2024-01-11T04:54:57.842Z,124.20
2024-01-11T04:56:01.098Z,128.07
2024-01-11T04:57:04.096Z,122.17
2024-01-11T04:58:07.279Z,122.67
2024-01-11T04:59:09.524Z,160.45
2024-01-11T05:00:13.776Z,184.70
2024-01-11T05:01:17.072Z,175.62
2024-01-11T05:02:22.867Z,155.17
2024-01-11T05:03:25.246Z,173.92
2024-01-11T05:04:28.402Z,162.55
2024-01-11T05:05:30.662Z,143.75
2024-01-11T05:06:33.940Z,146.05
2024-01-11T05:07:36.129Z,165.88
2024-01-11T05:08:38.883Z,139.52
2024-01-11T05:09:42.145Z,148.10
2024-01-11T05:10:45.747Z,133.70
2024-01-11T05:11:48.967Z,126.92
2024-01-11T05:12:51.255Z,137.47
2024-01-11T05:13:53.958Z,166.23
2024-01-11T05:14:57.149Z,190.32
2024-01-11T05:15:59.442Z,144.50
2024-01-11T05:17:02.826Z,147.43
2024-01-11T05:18:06.823Z,122.73
2024-01-11T05:19:10.260Z,111.70
2024-01-11T05:20:12.802Z,112.03
2024-01-11T05:21:16.092Z,114.50
2024-01-11T05:22:18.838Z,149.15
2024-01-11T05:23:22.054Z,138.68
2024-01-11T05:24:24.320Z,148.52
2024-01-11T05:25:27.487Z,134.12
2024-01-11T05:26:29.724Z,139.05
2024-01-11T05:27:32.922Z,146.23
2024-01-11T05:28:35.170Z,149.20
2024-01-11T05:29:38.374Z,156.00
2024-01-11T05:30:40.861Z,173.17
2024-01-11T05:31:44.135Z,166.72
2024-01-11T05:32:46.451Z,128.47
2024-01-11T05:33:51.311Z,127.47
2024-01-11T05:34:53.653Z,120.55
2024-01-11T05:35:56.868Z,135.13
2024-01-11T05:37:01.074Z,154.80
2024-01-11T05:38:04.556Z,154.83
2024-01-11T05:39:07.175Z,147.63
2024-01-11T05:40:10.820Z,149.92
2024-01-11T05:41:13.186Z,179.57
2024-01-11T05:42:15.442Z,148.77
2024-01-11T05:43:18.631Z,144.12
2024-01-11T05:44:21.393Z,161.20
2024-01-11T05:45:29.327Z,168.32
2024-01-11T05:46:38.131Z,164.13
2024-01-11T05:47:41.403Z,159.13
2024-01-11T05:48:43.996Z,148.30
2024-01-11T05:49:49.202Z,150.12
2024-01-11T05:50:51.435Z,144.23
2024-01-11T05:51:54.648Z,139.47
2024-01-11T05:52:57.989Z,134.88
2024-01-11T05:54:01.273Z,144.57
2024-01-11T05:55:03.623Z,138.15
2024-01-11T05:56:10.207Z,149.77
2024-01-11T05:57:12.548Z,149.72
2024-01-11T05:58:15.814Z,150.35
2024-01-11T05:59:18.086Z,146.92
2024-01-11T06:00:21.828Z,141.90
2024-01-11T06:01:24.239Z,143.73
2024-01-11T06:02:27.420Z,139.02
2024-01-11T06:03:30.879Z,138.83
2024-01-11T06:04:34.718Z,128.68
2024-01-11T06:05:38.493Z,134.53
2024-01-11T06:06:42.040Z,135.48
2024-01-11T06:07:44.228Z,134.05
2024-01-11T06:08:47.533Z,125.87
2024-01-11T06:09:49.815Z,114.30
2024-01-11T06:10:52.015Z,119.65
2024-01-11T06:11:55.279Z,117.65
2024-01-11T06:12:57.768Z,112.57
2024-01-11T06:14:01.693Z,113.25
2024-01-11T06:15:04.429Z,107.88
2024-01-11T06:16:10.052Z,108.72
2024-01-11T06:17:13.678Z,108.23
2024-01-11T06:18:17.064Z,112.22
2024-01-11T06:19:19.426Z,112.48
2024-01-11T06:20:22.782Z,114.92
2024-01-11T06:21:26.332Z,118.17
2024-01-11T06:22:29.494Z,122.93
2024-01-11T06:23:31.797Z,120.08
2024-01-11T06:24:34.981Z,117.27
2024-01-11T06:25:37.182Z,117.87
2024-01-11T06:26:40.452Z,111.67
2024-01-11T06:27:43.744Z,110.70
2024-01-11T06:28:46.955Z,113.27
2024-01-11T06:29:49.217Z,110.98
2024-01-11T06:30:52.434Z,108.90
2024-01-11T06:31:54.744Z,109.53
2024-01-11T06:32:57.908Z,110.60
2024-01-11T06:34:00.326Z,111.23
2024-01-11T06:35:04.435Z,115.92
2024-01-11T06:36:07.584Z,114.97
2024-01-11T06:37:12.190Z,115.55
2024-01-11T06:38:14.453Z,117.58
2024-01-11T06:39:17.922Z,115.53
2024-01-11T06:40:20.787Z,114.88
2024-01-11T06:41:24.142Z,114.57
2024-01-11T06:42:26.442Z,108.73
2024-01-11T06:43:29.629Z,111.82
2024-01-11T06:44:32.322Z,108.92
2024-01-11T06:45:36.300Z,112.37
2024-01-11T06:46:40.604Z,110.72
2024-01-11T06:47:46.049Z,111.57
2024-01-11T06:48:48.558Z,112.05
2024-01-11T06:49:51.829Z,115.37
2024-01-11T06:50:54.062Z,121.23
2024-01-11T06:51:57.625Z,125.53
2024-01-11T06:53:01.528Z,124.50
2024-01-11T06:54:05.054Z,126.68
2024-01-11T06:55:08.572Z,132.88
2024-01-11T06:56:18.346Z,135.88
2024-01-11T06:57:20.743Z,138.23
2024-01-11T06:58:24.256Z,133.32
2024-01-11T06:59:27.181Z,131.08
2024-01-11T07:00:30.455Z,126.43
2024-01-11T07:01:32.660Z,126.88
2024-01-11T07:02:36.424Z,122.52
2024-01-11T07:03:38.841Z,124.82
2024-01-11T07:04:46.870Z,126.98
2024-01-11T07:05:49.374Z,125.60
2024-01-11T07:06:52.727Z,126.42
2024-01-11T07:07:54.970Z,127.43
2024-01-11T07:08:59.556Z,131.20
2024-01-11T07:10:01.788Z,134.83
2024-01-11T07:11:05.408Z,139.93
2024-01-11T07:12:08.088Z,134.60
2024-01-11T07:13:12.401Z,133.88
2024-01-11T07:14:14.670Z,133.12
2024-01-11T07:15:18.363Z,128.98
2024-01-11T07:16:21.630Z,125.62
2024-01-11T07:17:25.021Z,119.57
2024-01-11T07:18:27.650Z,118.62
2024-01-11T07:19:30.992Z,112.02
2024-01-11T07:20:33.369Z,113.75
2024-01-11T07:21:37.019Z,112.90
2024-01-11T07:22:42.035Z,116.85
2024-01-11T07:23:45.897Z,123.90
2024-01-11T07:24:49.515Z,129.70
2024-01-11T07:25:52.800Z,135.08
2024-01-11T07:26:55.142Z,141.08
2024-01-11T07:27:57.638Z,138.90
2024-01-11T07:29:01.064Z,134.98
2024-01-11T07:30:03.842Z,135.13
2024-01-11T07:31:07.334Z,125.73
2024-01-11T07:32:09.757Z,124.48
2024-01-11T07:33:12.281Z,127.45
2024-01-11T07:34:15.723Z,130.75
2024-01-11T07:35:19.408Z,132.63
2024-01-11T07:36:22.840Z,137.85
2024-01-11T07:37:26.862Z,141.10
2024-01-11T07:38:29.157Z,139.68
2024-01-11T07:39:32.854Z,135.28
2024-01-11T07:40:37.404Z,136.37
2024-01-11T07:41:43.964Z,138.28
2024-01-11T07:42:47.134Z,139.97
2024-01-11T07:43:54.414Z,127.58
2024-01-11T07:44:57.383Z,121.63
2024-01-11T07:45:59.759Z,121.77
2024-01-11T07:47:03.054Z,125.40
2024-01-11T07:48:06.452Z,118.22
2024-01-11T07:49:09.011Z,114.02
2024-01-11T07:50:13.517Z,107.77
2024-01-11T07:51:15.928Z,110.37
2024-01-11T07:52:21.276Z,107.28
2024-01-11T07:53:24.613Z,102.55
2024-01-11T07:54:27.837Z,104.47
2024-01-11T07:55:29.997Z,100.37
2024-01-11T07:56:34.707Z,101.22
2024-01-11T07:57:37.522Z,102.63
2024-01-11T07:58:40.790Z,102.30
2024-01-11T07:59:43.194Z,97.30
2024-01-11T08:00:46.604Z,98.45
2024-01-11T08:01:49.510Z,96.80
2024-01-11T08:02:52.965Z,100.68
2024-01-11T08:03:55.348Z,100.27
2024-01-11T08:04:57.796Z,99.82
2024-01-11T08:06:01.708Z,102.25
2024-01-11T08:07:04.415Z,101.02
2024-01-11T08:08:12.815Z,100.40
2024-01-11T08:09:15.280Z,96.57
2024-01-11T08:10:18.533Z,93.30
2024-01-11T08:11:21.224Z,94.32
2024-01-11T08:12:26.090Z,94.30
2024-01-11T08:13:28.233Z,96.88
2024-01-11T08:14:31.437Z,99.75
2024-01-11T08:15:33.629Z,96.38
2024-01-11T08:16:37.103Z,98.73
2024-01-11T08:17:40.242Z,98.68
2024-01-11T08:18:44.983Z,100.27
2024-01-11T08:19:47.213Z,100.17
2024-01-11T08:20:50.555Z,96.27
2024-01-11T08:21:54.693Z,96.70
2024-01-11T08:22:58.062Z,96.42
2024-01-11T08:24:02.800Z,100.32
2024-01-11T08:25:07.689Z,91.68
2024-01-11T08:26:09.990Z,89.48
2024-01-11T08:27:13.125Z,89.37
2024-01-11T08:28:16.654Z,90.65
2024-01-11T08:29:20.941Z,91.22
2024-01-11T08:30:23.709Z,89.52
2024-01-11T08:31:27.034Z,89.85
2024-01-11T08:32:32.238Z,88.17
2024-01-11T08:33:37.934Z,90.30
2024-01-11T08:34:40.527Z,86.70
2024-01-11T08:35:43.768Z,85.08
2024-01-11T08:36:46.390Z,88.87
2024-01-11T08:37:50.524Z,93.43
2024-01-11T08:38:52.743Z,95.03
2024-01-11T08:39:54.927Z,97.38
2024-01-11T08:40:59.760Z,97.00
2024-01-11T08:42:02.043Z,101.03
2024-01-11T08:43:07.957Z,96.70
2024-01-11T08:44:11.534Z,91.20
2024-01-11T08:45:19.331Z,95.92
2024-01-11T08:46:25.944Z,97.47
2024-01-11T08:47:29.277Z,101.45
2024-01-11T08:48:31.843Z,105.05
2024-01-11T08:49:35.048Z,97.15
2024-01-11T08:50:37.295Z,87.53
2024-01-11T08:51:40.659Z,80.32
2024-01-11T08:52:43.696Z,79.12
2024-01-11T08:53:46.871Z,78.17
2024-01-11T08:54:50.422Z,82.63
2024-01-11T08:55:54.439Z,83.67
2024-01-11T08:56:56.683Z,84.00
2024-01-11T08:57:59.797Z,81.02
2024-01-11T08:59:02.078Z,80.45
2024-01-11T09:00:08.465Z,78.23
2024-01-11T09:01:11.472Z,82.83
2024-01-11T09:02:18.447Z,81.00
2024-01-11T09:03:22.636Z,79.73
2024-01-11T09:04:25.926Z,76.88
2024-01-11T09:05:28.313Z,73.38
2024-01-11T09:06:31.937Z,72.15
2024-01-11T09:07:34.188Z,67.48
2024-01-11T09:08:37.449Z,71.27
2024-01-11T09:09:44.909Z,68.57
2024-01-11T09:10:54.699Z,68.32
2024-01-11T09:11:57.008Z,67.15
2024-01-11T09:13:00.408Z,63.50
2024-01-11T09:14:04.091Z,64.40
2024-01-11T09:15:09.345Z,66.18
2024-01-11T09:16:14.957Z,66.82
2024-01-11T09:17:18.170Z,72.00
2024-01-11T09:18:20.433Z,70.30
2024-01-11T09:19:23.747Z,73.17
2024-01-11T09:20:25.987Z,68.72
2024-01-11T09:21:29.325Z,65.75
2024-01-11T09:22:32.500Z,65.70
2024-01-11T09:23:35.641Z,63.65
2024-01-11T09:24:40.220Z,67.72
2024-01-11T09:25:42.739Z,68.47
2024-01-11T09:26:45.044Z,70.20
2024-01-11T09:27:48.335Z,71.33
2024-01-11T09:28:50.625Z,67.22
2024-01-11T09:29:55.775Z,64.42
2024-01-11T09:31:03.117Z,62.53
2024-01-11T09:32:06.792Z,61.72
2024-01-11T09:33:10.195Z,65.82
2024-01-11T09:34:12.634Z,65.90
2024-01-11T09:35:16.858Z,63.38
2024-01-11T09:36:19.408Z,62.02
2024-01-11T09:37:21.830Z,62.78
2024-01-11T09:38:25.138Z,63.77
2024-01-11T09:39:27.792Z,61.92
2024-01-11T09:40:31.090Z,61.27
2024-01-11T09:41:33.373Z,61.62
2024-01-11T09:42:36.568Z,63.17
2024-01-11T09:43:39.195Z,64.92
2024-01-11T09:44:42.471Z,65.02
2024-01-11T09:45:46.813Z,60.62
2024-01-11T09:46:50.433Z,59.63
2024-01-11T09:47:54.345Z,60.80
2024-01-11T09:48:57.058Z,62.77
2024-01-11T09:50:01.502Z,61.62
2024-01-11T09:51:04.567Z,59.55
2024-01-11T09:52:09.674Z,58.75
2024-01-11T09:53:12.135Z,58.03
2024-01-11T09:54:17.296Z,56.08
2024-01-11T09:55:19.882Z,59.42
2024-01-11T09:56:24.586Z,60.62
2024-01-11T09:57:30.594Z,61.00
2024-01-11T09:58:37.159Z,63.03
2024-01-11T09:59:39.522Z,60.20
2024-01-11T10:00:43.320Z,59.88
2024-01-11T10:01:45.777Z,60.55
2024-01-11T10:02:50.928Z,60.62
2024-01-11T10:03:54.292Z,58.32
2024-01-11T10:04:57.948Z,60.43
2024-01-11T10:06:03.242Z,58.80
2024-01-11T10:07:07.205Z,58.17
2024-01-11T10:08:10.170Z,56.33
2024-01-11T10:09:14.082Z,56.35
2024-01-11T10:10:16.804Z,54.75
2024-01-11T10:11:20.201Z,52.97
2024-01-11T10:12:25.867Z,55.12
2024-01-11T10:13:31.041Z,56.97
2024-01-11T10:14:34.137Z,56.72
2024-01-11T10:15:37.492Z,54.47
2024-01-11T10:16:39.876Z,56.25
2024-01-11T10:17:45.562Z,53.68
2024-01-11T10:18:49.583Z,53.53
2024-01-11T10:19:53.147Z,53.28
2024-01-11T10:20:55.794Z,54.83
2024-01-11T10:21:59.950Z,53.97
2024-01-11T10:23:03.834Z,51.27
2024-01-11T10:24:07.491Z,51.77
2024-01-11T10:25:12.429Z,53.78
2024-01-11T10:26:18.329Z,51.77
2024-01-11T10:27:20.684Z,45.15
2024-01-11T10:28:23.994Z,44.98
2024-01-11T10:29:30.520Z,46.10
2024-01-11T10:30:35.087Z,48.45
2024-01-11T10:31:37.426Z,46.85
2024-01-11T10:32:40.755Z,47.70
2024-01-11T10:33:43.307Z,45.28
2024-01-11T10:34:49.437Z,42.53
2024-01-11T10:35:51.870Z,40.18
2024-01-11T10:36:55.211Z,41.80
2024-01-11T10:38:00.141Z,42.12
2024-01-11T10:39:06.016Z,41.30
2024-01-11T10:40:13.371Z,40.72
2024-01-11T10:41:20.702Z,39.98
2024-01-11T10:42:26.918Z,40.98
2024-01-11T10:43:32.741Z,41.85
2024-01-11T10:44:37.608Z,44.57
2024-01-11T10:45:40.260Z,45.40
2024-01-11T10:46:44.900Z,44.63
2024-01-11T10:47:53.187Z,41.85
2024-01-11T10:48:58.974Z,42.02
2024-01-11T10:50:03.818Z,42.10
2024-01-11T10:51:11.472Z,41.72
2024-01-11T10:52:14.241Z,44.25
2024-01-11T10:53:30.744Z,42.12
2024-01-11T10:54:35.808Z,40.18
2024-01-11T10:55:39.784Z,36.07
2024-01-11T10:56:44.988Z,33.35
2024-01-11T10:57:50.514Z,33.47
2024-01-11T10:58:54.522Z,33.53
2024-01-11T10:59:58.267Z,34.30
2024-01-11T11:01:02.001Z,35.77
2024-01-11T11:02:07.850Z,40.27
2024-01-11T11:03:12.994Z,37.38
2024-01-11T11:04:17.798Z,41.30
2024-01-11T11:05:23.897Z,42.00
2024-01-11T11:06:30.317Z,39.07
2024-01-11T11:07:33.660Z,39.22
2024-01-11T11:08:38.341Z,36.55
2024-01-11T11:09:45.920Z,37.30
2024-01-11T11:10:50.673Z,37.75
2024-01-11T11:11:55.433Z,38.02
2024-01-11T11:13:01.114Z,33.35
2024-01-11T11:14:04.902Z,36.12
2024-01-11T11:15:08.901Z,33.70
2024-01-11T11:16:12.246Z,34.65
2024-01-11T11:17:16.201Z,35.88
2024-01-11T11:18:20.506Z,34.63
2024-01-11T11:19:23.140Z,31.25
2024-01-11T11:20:29.357Z,31.23
2024-01-11T11:21:32.117Z,35.98
2024-01-11T11:22:37.197Z,36.98
2024-01-11T11:23:39.987Z,32.05
2024-01-11T11:24:43.522Z,28.90
2024-01-11T11:25:50.170Z,30.47
2024-01-11T11:26:53.701Z,32.00
2024-01-11T11:27:57.728Z,32.58
2024-01-11T11:29:02.253Z,35.18
2024-01-11T11:30:06.785Z,41.80
2024-01-11T11:31:10.382Z,47.33
2024-01-11T11:32:12.969Z,56.68
2024-01-11T11:33:19.764Z,54.00
2024-01-11T11:34:22.242Z,40.17
2024-01-11T11:35:27.404Z,43.97
2024-01-11T11:36:30.161Z,43.83
2024-01-11T11:37:34.043Z,38.67
2024-01-11T11:38:37.921Z,33.00
2024-01-11T11:39:41.382Z,31.93
2024-01-11T11:40:46.192Z,31.13
2024-01-11T11:41:50.920Z,31.80
2024-01-11T11:42:53.275Z,32.50
2024-01-11T11:43:56.449Z,32.07
2024-01-11T11:44:59.409Z,31.38
2024-01-11T11:46:08.786Z,30.58
2024-01-11T11:47:21.714Z,29.37
2024-01-11T11:48:49.954Z,29.15
2024-01-11T11:50:11.860Z,29.95
2024-01-11T11:51:19.870Z,28.58
2024-01-11T11:52:24.024Z,28.73
2024-01-11T11:53:26.367Z,30.03
2024-01-11T11:54:30.358Z,30.65
2024-01-11T11:55:33.670Z,30.17
2024-01-11T11:56:37.080Z,32.70
2024-01-11T11:57:39.331Z,31.55
2024-01-11T12:00:25.499Z,31.82
2024-01-11T12:01:38.903Z,29.77
2024-01-11T12:02:41.966Z,32.57
2024-01-11T12:03:51.312Z,33.93
2024-01-11T12:04:53.841Z,30.87
2024-01-11T12:05:57.983Z,30.65
2024-01-11T12:07:00.438Z,30.95
2024-01-11T12:08:03.961Z,28.83
2024-01-11T12:10:26.405Z,29.75
2024-01-11T12:11:29.852Z,29.78
2024-01-11T12:12:32.237Z,29.70
2024-01-11T12:13:34.983Z,35.30
2024-01-11T12:14:38.570Z,43.28
2024-01-11T12:15:41.451Z,33.40
2024-01-11T12:16:45.089Z,29.48
2024-01-11T12:17:47.444Z,32.72
2024-01-11T12:19:59.586Z,35.20
2024-01-11T12:21:02.997Z,33.95
2024-01-11T12:22:05.554Z,33.52
2024-01-11T12:23:09.021Z,32.18
2024-01-11T12:24:11.608Z,30.93
2024-01-11T12:25:14.946Z,29.67
2024-01-11T12:26:23.670Z,32.27
2024-01-11T12:27:28.200Z,37.78
2024-01-11T12:28:30.653Z,41.78
2024-01-11T12:29:39.964Z,39.03
2024-01-11T12:30:48.048Z,38.15
2024-01-11T12:31:51.511Z,38.07
2024-01-11T12:32:56.451Z,39.87
2024-01-11T12:33:59.208Z,37.43
2024-01-11T12:35:03.894Z,38.05
2024-01-11T12:36:08.980Z,37.53
2024-01-11T12:37:12.266Z,35.02
2024-01-11T12:38:14.644Z,32.97
2024-01-11T12:39:19.065Z,30.25
2024-01-11T12:40:21.333Z,32.48
2024-01-11T12:41:25.565Z,33.12
2024-01-11T12:42:28.740Z,31.70
2024-01-11T12:43:31.026Z,31.13
2024-01-11T12:44:36.583Z,31.98
2024-01-11T12:45:39.317Z,32.13
2024-01-11T12:46:42.641Z,31.38
2024-01-11T12:47:45.440Z,33.83
2024-01-11T12:48:49.909Z,37.00
2024-01-11T12:49:53.349Z,50.70
2024-01-11T12:51:10.176Z,33.33
2024-01-11T12:52:17.993Z,34.78
2024-01-11T12:53:21.448Z,35.97
2024-01-11T12:54:24.346Z,48.72
2024-01-11T12:55:27.644Z,48.88
2024-01-11T12:56:30.444Z,36.07
2024-01-11T12:57:34.607Z,36.70
2024-01-11T12:58:37.409Z,37.35
2024-01-11T12:59:41.057Z,38.37
2024-01-11T13:00:43.636Z,36.30
2024-01-11T13:01:47.037Z,36.52
2024-01-11T13:02:49.733Z,38.28
2024-01-11T13:03:53.538Z,40.45
2024-01-11T13:04:56.895Z,42.18
2024-01-11T13:06:02.519Z,39.52
2024-01-11T13:07:05.402Z,35.07
2024-01-11T13:08:10.370Z,33.72
2024-01-11T13:09:15.358Z,34.92
2024-01-11T13:10:18.897Z,33.53
2024-01-11T13:11:22.437Z,34.57
2024-01-11T13:12:25.846Z,33.78
2024-01-11T13:13:29.439Z,33.73
2024-01-11T13:14:33.041Z,33.35
2024-01-11T13:15:37.399Z,34.25
2024-01-11T13:16:41.004Z,32.98
2024-01-11T13:17:43.593Z,33.58
2024-01-11T13:18:46.987Z,35.95
2024-01-11T13:19:49.550Z,37.98
2024-01-11T13:20:53.060Z,40.17
2024-01-11T13:21:58.072Z,40.25
2024-01-11T13:23:16.042Z,36.45
2024-01-11T13:24:18.543Z,35.45
2024-01-11T13:25:22.180Z,36.02
2024-01-11T13:26:24.582Z,37.58
2024-01-11T13:27:27.904Z,36.10
2024-01-11T13:28:30.243Z,35.27
2024-01-11T13:29:33.410Z,38.18
2024-01-11T13:30:36.389Z,40.92
2024-01-11T13:31:39.856Z,41.58
2024-01-11T13:32:42.482Z,51.70